createdAt,value
2022-10-29T00:01:04.575Z,84.83
2022-10-29T00:03:31.206Z,84.34
2022-10-29T00:06:03.419Z,84.87
2022-10-29T00:08:32.475Z,85.02
2022-10-29T00:11:07.502Z,85.19
2022-10-29T00:13:37.090Z,84.12
2022-10-29T00:16:24.473Z,85.48
2022-10-29T00:18:51.190Z,84.60
2022-10-29T00:21:23.574Z,84.11
2022-10-29T00:23:50.951Z,85.29
2022-10-29T00:26:19.607Z,84.34
2022-10-29T00:28:46.909Z,84.60
2022-10-29T00:31:15.796Z,84.19
2022-10-29T00:33:43.055Z,85.12
2022-10-29T00:36:14.514Z,84.51
2022-10-29T00:38:41.077Z,84.45
2022-10-29T00:41:10.741Z,84.96
2022-10-29T00:43:39.085Z,85.14
2022-10-29T00:46:12.704Z,85.29
2022-10-29T00:48:45.457Z,84.42
2022-10-29T00:51:15.571Z,84.83
2022-10-29T00:54:04.502Z,84.82
2022-10-29T00:56:34.558Z,84.45
2022-10-29T00:59:01.701Z,84.89
2022-10-29T01:01:28.614Z,83.77
2022-10-29T01:03:55.489Z,84.38
2022-10-29T01:06:24.575Z,84.60
2022-10-29T01:08:51.108Z,84.19
2022-10-29T01:11:30.353Z,84.27
2022-10-29T01:14:21.456Z,85.75
2022-10-29T01:16:55.954Z,85.05
2022-10-29T01:19:44.328Z,86.18
2022-10-29T01:22:24.005Z,85.09
2022-10-29T01:24:59.704Z,84.92
2022-10-29T01:27:35.614Z,85.77
2022-10-29T01:30:02.141Z,85.27
2022-10-29T01:32:40.728Z,85.71
2022-10-29T01:35:13.324Z,85.75
2022-10-29T01:38:10.872Z,86.50
2022-10-29T01:40:48.402Z,85.34
2022-10-29T01:43:38.548Z,85.98
2022-10-29T01:46:16.447Z,85.71
2022-10-29T01:48:47.478Z,85.41
2022-10-29T01:51:20.961Z,85.10
2022-10-29T01:53:48.887Z,84.90
2022-10-29T01:56:15.501Z,85.22
2022-10-29T01:58:47.064Z,85.34
2022-10-29T02:01:52.151Z,84.92
2022-10-29T02:04:56.621Z,84.67
2022-10-29T02:07:35.274Z,84.68
2022-10-29T02:10:21.035Z,84.78
2022-10-29T02:12:51.238Z,84.66
2022-10-29T02:15:38.913Z,85.10
2022-10-29T02:18:08.192Z,85.06
2022-10-29T02:20:35.183Z,84.72
2022-10-29T02:23:02.469Z,84.41
2022-10-29T02:25:29.063Z,84.44
2022-10-29T02:27:59.051Z,85.23
2022-10-29T02:30:25.706Z,85.46
2022-10-29T02:32:52.289Z,85.60
2022-10-29T02:35:19.071Z,84.77
2022-10-29T02:37:45.615Z,85.13
2022-10-29T02:40:12.747Z,85.16
2022-10-29T02:42:39.398Z,85.17
2022-10-29T02:45:06.838Z,85.19
2022-10-29T02:47:33.567Z,85.29
2022-10-29T02:50:00.246Z,84.71
2022-10-29T02:52:26.791Z,85.33
2022-10-29T02:54:53.922Z,85.47
2022-10-29T02:57:20.629Z,85.32
2022-10-29T02:59:47.179Z,85.66
2022-10-29T03:02:14.280Z,85.39
2022-10-29T03:04:41.519Z,85.49
2022-10-29T03:07:08.117Z,85.29
2022-10-29T03:09:35.035Z,85.49
2022-10-29T03:12:02.016Z,85.25
2022-10-29T03:14:28.646Z,84.79
2022-10-29T03:16:55.241Z,85.28
2022-10-29T03:19:21.865Z,85.10
2022-10-29T03:21:48.423Z,84.73
2022-10-29T03:24:14.990Z,84.79
2022-10-29T03:26:41.559Z,85.19
2022-10-29T03:29:08.208Z,85.17
2022-10-29T03:31:34.731Z,84.51
2022-10-29T03:34:01.370Z,85.11
2022-10-29T03:36:28.069Z,84.83
2022-10-29T03:38:54.634Z,85.56
2022-10-29T03:41:21.175Z,85.35
2022-10-29T03:43:47.842Z,85.18
2022-10-29T03:46:14.506Z,85.34
2022-10-29T03:48:41.105Z,85.41
2022-10-29T03:51:07.995Z,85.51
2022-10-29T03:53:36.401Z,85.08
2022-10-29T03:56:03.952Z,85.33
2022-10-29T03:58:30.519Z,84.94
2022-10-29T04:01:02.908Z,85.61
2022-10-29T04:03:31.676Z,85.41
2022-10-29T04:06:00.373Z,85.46
2022-10-29T04:08:27.368Z,85.42
2022-10-29T04:10:54.004Z,85.44
2022-10-29T04:13:20.780Z,85.96
2022-10-29T04:15:47.615Z,86.50
2022-10-29T04:18:14.453Z,86.02
2022-10-29T04:20:57.043Z,85.62
2022-10-29T04:29:02.564Z,85.74
2022-10-29T04:31:29.178Z,85.82
2022-10-29T04:33:55.778Z,85.94
2022-10-29T04:36:22.325Z,85.54
2022-10-29T04:38:50.393Z,85.78
2022-10-29T04:41:17.093Z,85.56
2022-10-29T04:43:43.675Z,85.31
2022-10-29T04:46:10.772Z,85.26
2022-10-29T04:48:37.527Z,85.44
2022-10-29T04:51:04.382Z,85.19
2022-10-29T04:53:30.960Z,85.31
2022-10-29T04:56:01.963Z,85.25
2022-10-29T04:58:28.519Z,85.34
2022-10-29T05:01:01.652Z,84.92
2022-10-29T05:03:28.255Z,85.08
2022-10-29T05:05:54.830Z,85.19
2022-10-29T05:08:21.666Z,85.06
2022-10-29T05:10:48.222Z,85.18
2022-10-29T05:13:14.796Z,85.28
2022-10-29T05:15:42.074Z,85.58
2022-10-29T05:18:10.500Z,85.42
2022-10-29T05:20:37.067Z,84.98
2022-10-29T05:23:06.688Z,84.89
2022-10-29T05:25:35.549Z,84.91
2022-10-29T05:28:06.437Z,85.08
2022-10-29T05:30:34.330Z,84.84
2022-10-29T05:33:00.932Z,85.38
2022-10-29T05:35:28.635Z,85.14
2022-10-29T05:37:56.529Z,84.74
2022-10-29T05:40:24.001Z,85.22
2022-10-29T05:42:50.698Z,85.33
2022-10-29T05:45:17.964Z,85.48
2022-10-29T05:47:46.235Z,85.61
2022-10-29T05:50:13.782Z,85.52
2022-10-29T05:52:40.689Z,85.31
2022-10-29T05:55:08.467Z,85.71
2022-10-29T05:57:34.987Z,86.04
2022-10-29T06:00:02.163Z,85.81
2022-10-29T06:02:38.705Z,85.93
2022-10-29T06:05:05.680Z,85.99
2022-10-29T06:07:32.401Z,85.60
2022-10-29T06:09:58.977Z,86.11
2022-10-29T06:12:25.543Z,85.64
2022-10-29T06:14:52.081Z,86.00
2022-10-29T06:17:18.611Z,85.65
2022-10-29T06:19:45.200Z,85.56
2022-10-29T06:22:11.743Z,85.71
2022-10-29T06:24:38.324Z,85.59
2022-10-29T06:27:04.859Z,85.52
2022-10-29T06:29:31.451Z,85.76
2022-10-29T06:31:58.004Z,85.41
2022-10-29T06:34:24.530Z,85.46
2022-10-29T06:36:53.160Z,85.72
2022-10-29T06:39:19.741Z,86.04
2022-10-29T06:41:46.311Z,85.38
2022-10-29T06:44:18.479Z,85.64
2022-10-29T06:46:45.044Z,85.89
2022-10-29T06:49:11.652Z,85.27
2022-10-29T06:51:38.236Z,85.40
2022-10-29T06:54:04.841Z,85.12
2022-10-29T06:56:31.488Z,85.86
2022-10-29T06:58:57.998Z,85.32
2022-10-29T07:01:30.684Z,84.87
2022-10-29T07:03:59.448Z,84.91
2022-10-29T07:06:27.315Z,85.33
2022-10-29T07:08:53.986Z,85.53
2022-10-29T07:11:20.532Z,85.19
2022-10-29T07:13:47.121Z,85.46
2022-10-29T07:16:13.678Z,84.56
2022-10-29T07:18:40.336Z,84.62
2022-10-29T07:21:06.950Z,84.82
2022-10-29T07:23:33.565Z,84.80
2022-10-29T07:26:00.199Z,84.13
2022-10-29T07:28:26.889Z,85.07
2022-10-29T07:31:00.246Z,84.79
2022-10-29T07:33:29.882Z,84.15
2022-10-29T07:35:58.536Z,84.59
2022-10-29T07:38:26.284Z,84.69
2022-10-29T07:40:53.668Z,84.63
2022-10-29T07:43:21.236Z,84.35
2022-10-29T07:45:49.928Z,83.99
2022-10-29T07:48:17.596Z,84.04
2022-10-29T07:50:44.171Z,84.46
2022-10-29T07:53:10.952Z,83.96
2022-10-29T07:55:42.796Z,83.90
2022-10-29T07:58:12.240Z,83.65
2022-10-29T08:00:40.785Z,84.53
2022-10-29T08:03:08.020Z,84.27
2022-10-29T08:05:35.092Z,83.94
2022-10-29T08:08:01.754Z,83.95
2022-10-29T08:10:31.204Z,82.95
2022-10-29T08:13:00.691Z,83.60
2022-10-29T08:15:30.555Z,82.92
2022-10-29T08:17:57.350Z,82.73
2022-10-29T08:20:26.391Z,82.29
2022-10-29T08:22:54.554Z,82.26
2022-10-29T08:25:21.395Z,81.04
2022-10-29T08:28:01.669Z,82.20
2022-10-29T08:30:30.562Z,81.70
2022-10-29T08:32:58.860Z,82.09
2022-10-29T08:35:25.764Z,81.59
2022-10-29T08:37:52.785Z,82.04
2022-10-29T08:40:34.448Z,81.20
2022-10-29T08:43:35.331Z,80.86
2022-10-29T08:46:02.993Z,81.66
2022-10-29T08:48:54.041Z,79.67
2022-10-29T08:51:22.812Z,80.97
2022-10-29T08:54:25.046Z,79.88
2022-10-29T08:56:53.559Z,79.46
2022-10-29T08:59:22.789Z,80.23
2022-10-29T09:01:51.043Z,80.56
2022-10-29T09:04:33.790Z,78.67
2022-10-29T09:07:22.325Z,79.05
2022-10-29T09:10:08.922Z,78.56
2022-10-29T09:12:47.351Z,79.22
2022-10-29T09:15:57.184Z,78.14
2022-10-29T09:18:50.831Z,79.35
2022-10-29T09:21:51.734Z,76.87
2022-10-29T09:24:30.363Z,76.88
2022-10-29T09:26:59.415Z,78.34
2022-10-29T09:29:56.244Z,76.30
2022-10-29T09:32:29.738Z,76.67
2022-10-29T09:35:03.389Z,77.67
2022-10-29T09:37:55.926Z,74.95
2022-10-29T09:40:39.086Z,74.32
2022-10-29T09:43:43.275Z,74.05
2022-10-29T09:46:15.277Z,76.84
2022-10-29T09:48:47.824Z,74.88
2022-10-29T09:51:46.535Z,74.93
2022-10-29T09:54:13.418Z,75.41
2022-10-29T09:56:42.823Z,75.65
2022-10-29T09:59:33.348Z,74.03
2022-10-29T10:02:00.334Z,75.17
2022-10-29T10:04:30.957Z,74.89
2022-10-29T10:07:05.559Z,72.97
2022-10-29T10:10:02.255Z,72.04
2022-10-29T10:12:43.385Z,73.13
2022-10-29T10:15:16.224Z,73.91
2022-10-29T10:17:55.494Z,71.28
2022-10-29T10:20:33.500Z,71.31
2022-10-29T10:23:01.105Z,72.04
2022-10-29T10:25:38.732Z,70.45
2022-10-29T10:28:17.859Z,68.95
2022-10-29T10:30:46.075Z,72.09
2022-10-29T10:35:55.722Z,71.58
2022-10-29T10:38:22.312Z,71.14
2022-10-29T10:40:57.376Z,70.19
2022-10-29T10:43:25.755Z,69.89
2022-10-29T10:45:56.653Z,71.17
2022-10-29T10:48:24.266Z,67.49
2022-10-29T10:50:51.174Z,68.79
2022-10-29T10:53:19.825Z,69.86
2022-10-29T10:55:52.736Z,66.01
2022-10-29T10:58:41.574Z,65.31
2022-10-29T11:01:16.351Z,65.63
2022-10-29T11:03:57.921Z,65.58
2022-10-29T11:06:28.163Z,69.02
2022-10-29T11:09:25.998Z,65.80
2022-10-29T11:12:04.233Z,65.91
2022-10-29T11:14:36.582Z,68.19
2022-10-29T11:17:08.250Z,68.40
2022-10-29T11:19:43.037Z,67.67
2022-10-29T11:22:18.140Z,68.07
2022-10-29T11:24:55.728Z,65.69
2022-10-29T11:27:45.455Z,66.42
2022-10-29T11:30:16.705Z,66.96
2022-10-29T11:32:58.470Z,65.37
2022-10-29T11:35:28.280Z,67.38
2022-10-29T11:38:10.075Z,66.49
2022-10-29T11:41:05.196Z,65.15
2022-10-29T11:43:33.501Z,67.90
2022-10-29T11:46:15.424Z,66.21
2022-10-29T11:48:54.093Z,67.23
2022-10-29T11:51:35.780Z,65.71
2022-10-29T11:54:25.780Z,66.57
2022-10-29T11:57:01.153Z,66.62
2022-10-29T11:59:45.465Z,66.42
2022-10-29T12:02:40.604Z,64.89
2022-10-29T12:05:31.566Z,65.88
2022-10-29T12:08:03.965Z,64.86
2022-10-29T12:10:50.070Z,66.16
2022-10-29T12:13:41.271Z,63.72
2022-10-29T12:16:14.681Z,64.56
2022-10-29T12:18:59.522Z,65.34
2022-10-29T12:22:09.479Z,64.43
2022-10-29T12:25:00.833Z,63.86
2022-10-29T12:27:42.599Z,63.46
2022-10-29T12:30:11.743Z,64.68
2022-10-29T12:32:58.817Z,63.18
2022-10-29T12:35:45.850Z,64.13
2022-10-29T12:38:40.133Z,63.40
2022-10-29T12:41:31.260Z,62.02
2022-10-29T12:44:10.495Z,63.86
2022-10-29T12:46:46.159Z,62.35
2022-10-29T12:49:48.329Z,61.82
2022-10-29T12:52:38.557Z,61.95
2022-10-29T12:55:09.389Z,63.04
2022-10-29T12:57:36.233Z,60.70
2022-10-29T13:00:46.334Z,60.31
2022-10-29T13:03:33.137Z,63.16
2022-10-29T13:06:38.031Z,61.13
2022-10-29T13:09:25.434Z,60.15
2022-10-29T13:11:58.288Z,61.52
2022-10-29T13:14:33.501Z,60.86
2022-10-29T13:17:02.983Z,62.45
2022-10-29T13:19:46.062Z,61.30
2022-10-29T13:22:15.520Z,62.58
2022-10-29T13:24:42.261Z,63.68
2022-10-29T13:27:12.680Z,62.54
2022-10-29T13:30:20.963Z,62.51
2022-10-29T13:32:47.547Z,62.25
2022-10-29T13:35:16.776Z,63.01
2022-10-29T13:37:48.160Z,63.49
2022-10-29T13:40:33.201Z,62.11
2022-10-29T13:43:12.005Z,63.34
2022-10-29T13:45:42.940Z,62.86
2022-10-29T13:48:42.165Z,61.79
2022-10-29T13:51:15.121Z,63.07
2022-10-29T13:54:03.416Z,62.82
2022-10-29T13:56:54.150Z,62.45
2022-10-29T13:59:33.433Z,63.12
2022-10-29T14:02:30.180Z,62.68
2022-10-29T14:05:17.625Z,62.89
2022-10-29T14:07:52.745Z,63.06
2022-10-29T14:10:25.602Z,62.66
2022-10-29T14:12:59.121Z,62.75
2022-10-29T14:15:26.123Z,64.07
2022-10-29T14:17:52.721Z,63.86
2022-10-29T14:20:25.739Z,63.29
2022-10-29T14:22:53.028Z,63.62
2022-10-29T14:25:30.188Z,63.50
2022-10-29T14:28:13.014Z,62.55
2022-10-29T14:30:39.733Z,63.79
2022-10-29T14:33:27.363Z,62.75
2022-10-29T14:36:11.331Z,63.79
2022-10-29T14:39:57.226Z,63.22
2022-10-29T14:42:37.016Z,63.74
2022-10-29T14:45:08.301Z,64.47
2022-10-29T14:47:37.132Z,64.72
2022-10-29T14:50:14.108Z,64.83
2022-10-29T14:52:49.673Z,64.27
2022-10-29T14:55:27.915Z,64.17
2022-10-29T14:58:22.244Z,64.62
2022-10-29T15:01:05.859Z,64.52
2022-10-29T15:03:35.003Z,65.49
2022-10-29T15:06:12.184Z,65.00
2022-10-29T15:08:40.873Z,65.53
2022-10-29T15:11:31.632Z,65.06
2022-10-29T15:13:58.435Z,65.86
2022-10-29T15:16:25.163Z,66.17
2022-10-29T15:18:53.697Z,66.68
2022-10-29T15:21:31.922Z,66.19
2022-10-29T15:24:07.581Z,66.39
2022-10-29T15:26:45.919Z,66.51
2022-10-29T15:29:13.068Z,67.27
2022-10-29T15:31:49.463Z,67.11
2022-10-29T15:34:47.035Z,67.29
2022-10-29T15:37:22.880Z,67.78
2022-10-29T15:39:56.537Z,68.00
2022-10-29T15:42:30.605Z,67.58
2022-10-29T15:47:49.344Z,68.20
2022-10-29T15:50:19.533Z,68.40
2022-10-29T15:52:51.924Z,68.77
2022-10-29T15:55:27.728Z,69.38
2022-10-29T15:57:59.706Z,69.18
2022-10-29T16:00:26.468Z,69.60
2022-10-29T16:02:58.456Z,69.33
2022-10-29T16:05:25.542Z,69.58
2022-10-29T16:07:52.164Z,69.96
2022-10-29T16:10:21.368Z,69.73
2022-10-29T16:12:49.556Z,69.84
2022-10-29T16:15:19.690Z,70.51
2022-10-29T16:17:47.098Z,70.38
2022-10-29T16:20:18.782Z,70.49
2022-10-29T16:22:48.012Z,70.41
2022-10-29T16:25:26.281Z,70.80
2022-10-29T16:27:53.296Z,70.78
2022-10-29T16:30:21.583Z,70.85
2022-10-29T16:32:52.558Z,70.92
2022-10-29T16:35:24.108Z,71.34
2022-10-29T16:37:51.893Z,71.10
2022-10-29T16:40:20.059Z,71.40
2022-10-29T16:42:47.068Z,71.29
2022-10-29T16:45:20.399Z,71.42
2022-10-29T16:47:47.022Z,71.78
2022-10-29T16:50:27.611Z,72.06
2022-10-29T16:53:10.148Z,71.82
2022-10-29T16:55:39.167Z,71.98
2022-10-29T16:58:11.980Z,72.06
2022-10-29T17:00:38.785Z,71.95
2022-10-29T17:03:08.404Z,72.43
2022-10-29T17:05:39.416Z,72.32
2022-10-29T17:08:06.438Z,72.30
2022-10-29T17:10:35.748Z,72.55
2022-10-29T17:13:02.398Z,72.72
2022-10-29T17:15:28.979Z,72.92
2022-10-29T17:17:55.841Z,72.78
2022-10-29T17:20:22.615Z,73.22
2022-10-29T17:22:49.211Z,72.88
2022-10-29T17:25:15.913Z,73.32
2022-10-29T17:27:42.871Z,73.15
2022-10-29T17:30:10.815Z,72.52
2022-10-29T17:32:37.632Z,73.12
2022-10-29T17:35:04.682Z,72.91
2022-10-29T17:37:31.447Z,73.43
2022-10-29T17:40:01.632Z,73.16
2022-10-29T17:42:32.518Z,73.38
2022-10-29T17:44:59.068Z,74.11
2022-10-29T17:51:53.142Z,73.86
2022-10-29T17:54:21.259Z,74.18
2022-10-29T17:56:49.067Z,74.42
2022-10-29T17:59:15.635Z,73.84
2022-10-29T18:01:43.963Z,74.08
2022-10-29T18:04:11.234Z,74.18
2022-10-29T18:06:38.176Z,74.36
2022-10-29T18:09:04.964Z,74.60
2022-10-29T18:11:32.342Z,75.14
2022-10-29T18:13:59.172Z,75.01
2022-10-29T18:16:27.937Z,73.86
2022-10-29T18:19:01.200Z,74.89
2022-10-29T18:21:28.532Z,75.75
2022-10-29T18:23:55.086Z,75.25
2022-10-29T18:26:27.745Z,74.83
2022-10-29T18:28:55.477Z,75.18
2022-10-29T18:31:25.215Z,75.54
2022-10-29T18:33:52.018Z,75.21
2022-10-29T18:36:18.670Z,75.77
2022-10-29T18:38:50.058Z,75.53
2022-10-29T18:41:16.706Z,75.45
2022-10-29T18:43:43.256Z,76.12
2022-10-29T18:46:10.969Z,76.67
2022-10-29T18:48:42.525Z,76.16
2022-10-29T18:51:12.354Z,75.66
2022-10-29T18:53:39.689Z,76.09
2022-10-29T18:56:14.982Z,76.71
2022-10-29T18:58:42.655Z,76.08
2022-10-29T19:01:17.821Z,76.76
2022-10-29T19:03:49.015Z,76.99
2022-10-29T19:06:15.442Z,77.58
2022-10-29T19:08:43.423Z,77.16
2022-10-29T19:11:13.453Z,77.09
2022-10-29T19:13:40.279Z,76.94
2022-10-29T19:16:13.900Z,77.80
2022-10-29T19:18:41.170Z,77.79
2022-10-29T19:21:15.043Z,77.24
2022-10-29T19:23:41.698Z,77.49
2022-10-29T19:26:11.514Z,77.52
2022-10-29T19:28:39.389Z,78.28
2022-10-29T19:31:08.918Z,77.97
2022-10-29T19:33:36.120Z,78.20
2022-10-29T19:36:07.241Z,78.42
2022-10-29T19:38:33.952Z,80.10
2022-10-29T19:41:01.309Z,78.67
2022-10-29T19:43:30.167Z,78.67
2022-10-29T19:45:57.101Z,78.92
2022-10-29T19:48:24.593Z,78.94
2022-10-29T19:50:57.230Z,79.16
2022-10-29T19:53:25.488Z,79.67
2022-10-29T19:55:53.868Z,79.92
2022-10-29T19:58:22.402Z,80.04
2022-10-29T20:00:49.204Z,80.14
2022-10-29T20:03:16.879Z,79.81
2022-10-29T20:05:44.068Z,79.75
2022-10-29T20:08:15.708Z,79.65
2022-10-29T20:10:43.574Z,80.42
2022-10-29T20:13:10.169Z,80.00
2022-10-29T20:15:39.018Z,80.64
2022-10-29T20:18:05.834Z,80.32
2022-10-29T20:20:32.555Z,80.41
2022-10-29T20:23:00.051Z,80.26
2022-10-29T20:25:27.398Z,80.15
2022-10-29T20:27:54.021Z,81.15
2022-10-29T20:30:20.693Z,81.61
2022-10-29T20:32:48.300Z,83.12
2022-10-29T20:35:17.602Z,82.60
2022-10-29T20:37:44.249Z,81.65
2022-10-29T20:40:11.859Z,80.88
2022-10-29T20:42:38.824Z,81.70
2022-10-29T20:45:08.548Z,81.79
2022-10-29T20:47:35.164Z,82.00
2022-10-29T20:50:04.480Z,81.86
2022-10-29T20:52:31.074Z,82.52
2022-10-29T20:54:57.570Z,81.35
2022-10-29T20:57:24.381Z,81.84
2022-10-29T20:59:51.061Z,81.74
2022-10-29T21:02:17.807Z,81.57
2022-10-29T21:04:44.536Z,82.35
2022-10-29T21:07:13.861Z,81.87
2022-10-29T21:09:40.392Z,82.23
2022-10-29T21:12:07.174Z,82.03
2022-10-29T21:14:33.785Z,81.83
2022-10-29T21:17:00.352Z,82.24
2022-10-29T21:19:28.194Z,81.93
2022-10-29T21:21:54.778Z,81.96
2022-10-29T21:24:21.421Z,81.81
2022-10-29T21:26:48.013Z,81.48
2022-10-29T21:29:14.694Z,82.53
2022-10-29T21:31:41.304Z,82.08
2022-10-29T21:34:08.871Z,82.12
2022-10-29T21:36:41.319Z,81.86
2022-10-29T21:39:10.732Z,81.96
2022-10-29T21:41:37.298Z,81.52
2022-10-29T21:44:03.944Z,81.66
2022-10-29T21:46:30.505Z,81.66
2022-10-29T21:48:57.108Z,81.82
2022-10-29T21:51:23.685Z,81.58
2022-10-29T21:53:50.272Z,81.78
2022-10-29T21:56:16.893Z,81.31
2022-10-29T21:58:43.859Z,81.07
2022-10-29T22:01:15.578Z,81.70
2022-10-29T22:03:43.775Z,82.02
2022-10-29T22:06:19.452Z,82.03
2022-10-29T22:08:47.277Z,81.34
2022-10-29T22:11:15.225Z,81.21
2022-10-29T22:13:41.859Z,82.00
2022-10-29T22:16:11.356Z,81.37
2022-10-29T22:18:38.106Z,81.72
2022-10-29T22:21:13.312Z,82.59
2022-10-29T22:23:48.200Z,82.60
2022-10-29T22:26:17.018Z,81.70
2022-10-29T22:28:43.707Z,81.16
2022-10-29T22:31:10.976Z,81.73
2022-10-29T22:33:37.643Z,82.02
2022-10-29T22:36:10.018Z,83.03
2022-10-29T22:38:37.088Z,82.08
2022-10-29T22:41:15.629Z,83.41
2022-10-29T22:43:42.828Z,81.91
2022-10-29T22:46:10.816Z,81.78
2022-10-29T22:48:37.518Z,81.94
2022-10-29T22:51:06.916Z,81.75
2022-10-29T22:53:34.040Z,82.72
2022-10-29T22:56:01.618Z,82.41
2022-10-29T22:58:28.433Z,83.11
2022-10-29T23:01:08.060Z,84.03
2022-10-29T23:03:35.216Z,82.73
2022-10-29T23:06:04.181Z,83.01
2022-10-29T23:08:32.134Z,82.95
2022-10-29T23:11:03.587Z,83.26
2022-10-29T23:13:30.203Z,83.24
2022-10-29T23:15:56.831Z,82.79
2022-10-29T23:18:23.452Z,82.44
2022-10-29T23:20:58.223Z,83.61
2022-10-29T23:23:24.858Z,83.09
2022-10-29T23:25:52.056Z,83.12
2022-10-29T23:28:18.633Z,83.29
2022-10-29T23:30:52.780Z,84.01
2022-10-29T23:33:19.382Z,83.85
2022-10-29T23:35:45.956Z,84.07
2022-10-29T23:38:12.544Z,82.71
2022-10-29T23:40:39.143Z,82.99
2022-10-29T23:43:05.727Z,83.31
2022-10-29T23:45:32.337Z,83.96
2022-10-29T23:47:59.196Z,82.75
2022-10-29T23:50:26.065Z,82.48
2022-10-29T23:52:52.671Z,83.08
2022-10-29T23:55:19.188Z,83.30
2022-10-29T23:57:45.788Z,82.82
